Time;durP1;ratioP1;P1;durP2;ratioP2;P2;SDS_P1;SDS_P2;PMS_P1;PMS_P2;Temp;Humidity;BMP_temperature;BMP_pressure;BME280_temperature;BME280_humidity;BME280_pressure;Samples;Min_cycle;Max_cycle;Signal;HPM_P1;HPM_P2
2021/01/22 00:02:27;;;;;;;5.13;2.00;;;;;;;6.94;88.48;98671.88;4965700;28;20047;-76
2021/01/22 00:04:54;;;;;;;3.40;2.35;;;;;;;6.91;88.58;98671.28;4960386;28;20054;-75
2021/01/22 00:07:21;;;;;;;5.40;2.78;;;;;;;6.84;89.09;98668.25;4984814;28;20569;-76
2021/01/22 00:09:48;;;;;;;5.07;2.75;;;;;;;6.84;87.60;98666.50;4942954;29;20075;-74
2021/01/22 00:12:15;;;;;;;5.05;2.90;;;;;;;6.88;86.84;98656.63;4949690;29;20147;-75
2021/01/22 00:14:41;;;;;;;7.88;2.95;;;;;;;6.85;86.82;98656.88;4955092;28;20121;-77
2021/01/22 00:17:08;;;;;;;6.88;3.47;;;;;;;6.81;86.56;98644.97;4965194;28;20063;-77
2021/01/22 00:19:35;;;;;;;9.55;3.55;;;;;;;6.84;85.50;98642.13;4969296;28;20050;-77
2021/01/22 00:22:02;;;;;;;6.30;4.00;;;;;;;6.76;85.92;98634.03;4975847;28;20115;-76
2021/01/22 00:24:28;;;;;;;6.18;3.60;;;;;;;6.73;86.29;98618.56;4973550;28;20055;-78
2021/01/22 00:26:55;;;;;;;8.70;4.10;;;;;;;6.72;85.21;98615.13;4966181;28;20197;-78
2021/01/22 00:29:22;;;;;;;8.02;3.83;;;;;;;6.77;85.02;98607.75;4945115;28;20671;-77
2021/01/22 00:31:50;;;;;;;6.30;3.40;;;;;;;6.78;84.69;98600.75;4964605;28;20074;-75
2021/01/22 00:34:17;;;;;;;6.65;4.00;;;;;;;6.84;83.72;98592.41;4956469;28;20402;-75
2021/01/22 00:36:49;;;;;;;13.15;4.10;;;;;;;6.75;84.17;98580.88;4958905;28;20040;-75
2021/01/22 00:39:16;;;;;;;8.57;4.30;;;;;;;6.81;82.70;98577.81;4959838;28;20136;-76
2021/01/22 00:41:44;;;;;;;6.80;4.15;;;;;;;6.77;82.92;98570.31;4954255;28;20055;-75
2021/01/22 00:44:10;;;;;;;8.50;3.83;;;;;;;6.90;81.52;98565.81;4952800;29;20107;-75
2021/01/22 00:46:37;;;;;;;7.68;4.05;;;;;;;6.95;81.26;98566.28;4964135;28;20047;-74
2021/01/22 00:49:04;;;;;;;5.90;3.38;;;;;;;6.98;81.05;98563.44;5013451;23;20046;-84
2021/01/22 00:51:33;;;;;;;7.65;4.25;;;;;;;7.06;81.10;98552.38;5006223;28;20101;-84
2021/01/22 00:54:03;;;;;;;7.40;3.83;;;;;;;7.16;79.56;98544.63;4986664;28;20583;-83
2021/01/22 00:56:31;;;;;;;5.90;3.75;;;;;;;7.26;79.19;98554.28;4990377;28;20088;-83
2021/01/22 00:58:58;;;;;;;7.15;3.78;;;;;;;7.25;79.45;98543.91;4979467;28;20067;-84
2021/01/22 01:01:25;;;;;;;7.53;3.45;;;;;;;7.24;79.73;98548.31;4994736;28;20054;-83
2021/01/22 01:04:05;;;;;;;8.07;4.10;;;;;;;7.32;79.33;98545.13;4980129;28;20054;-84
2021/01/22 01:06:33;;;;;;;11.18;3.97;;;;;;;7.45;78.51;98548.44;4973190;28;20054;-83
2021/01/22 01:09:00;;;;;;;8.68;3.70;;;;;;;7.55;78.71;98546.75;4991759;28;20055;-82
2021/01/22 01:11:28;;;;;;;5.35;3.13;;;;;;;7.64;78.04;98539.09;4959104;28;20085;-83
2021/01/22 01:13:55;;;;;;;5.03;3.20;;;;;;;7.68;78.33;98536.13;4974411;28;20055;-84
2021/01/22 01:16:22;;;;;;;5.38;2.90;;;;;;;7.75;78.07;98533.84;4973326;28;20094;-81
2021/01/22 01:18:51;;;;;;;6.32;3.20;;;;;;;7.82;78.68;98533.22;4964182;28;20099;-83
2021/01/22 01:21:18;;;;;;;5.97;2.65;;;;;;;7.89;78.68;98528.31;4989842;28;20082;-81
2021/01/22 01:23:46;;;;;;;4.13;2.45;;;;;;;8.00;78.16;98525.66;4958139;28;20098;-81
2021/01/22 01:26:16;;;;;;;3.15;1.85;;;;;;;8.04;78.74;98528.84;4998420;28;20109;-82
2021/01/22 01:28:42;;;;;;;4.32;2.10;;;;;;;8.19;77.23;98524.13;5003877;28;20094;-82
2021/01/22 01:31:09;;;;;;;2.97;1.80;;;;;;;8.21;77.73;98525.69;5000393;28;20058;-82
2021/01/22 01:33:38;;;;;;;3.80;1.92;;;;;;;8.28;78.29;98529.44;4993413;28;20107;-81
2021/01/22 01:36:05;;;;;;;3.63;1.75;;;;;;;8.38;77.64;98505.97;5009965;23;20038;-80
2021/01/22 01:38:31;;;;;;;3.58;1.67;;;;;;;8.38;78.00;98515.63;4987777;28;20038;-81
2021/01/22 01:40:58;;;;;;;2.67;1.80;;;;;;;8.47;77.67;98504.38;5009557;28;20716;-78
2021/01/22 01:43:26;;;;;;;2.55;1.30;;;;;;;8.45;77.71;98507.09;4974483;28;20066;-79
2021/01/22 01:45:52;;;;;;;2.60;1.38;;;;;;;8.39;78.50;98493.69;4977046;28;20113;-79
2021/01/22 01:48:21;;;;;;;1.80;1.20;;;;;;;8.54;77.54;98490.59;4991307;28;20100;-82
2021/01/22 01:50:48;;;;;;;2.00;1.25;;;;;;;8.62;77.40;98490.78;4978607;28;20066;-80
2021/01/22 01:53:15;;;;;;;2.05;1.00;;;;;;;8.70;77.11;98492.75;4991389;28;20049;-80
2021/01/22 01:55:42;;;;;;;3.25;2.17;;;;;;;8.64;77.62;98482.78;4981176;28;20057;-80
2021/01/22 01:58:12;;;;;;;1.95;0.98;;;;;;;8.70;77.15;98482.28;4955297;28;20106;-81
2021/01/22 02:00:39;;;;;;;2.28;0.98;;;;;;;8.81;77.18;98481.34;4962710;28;20049;-80
2021/01/22 02:03:06;;;;;;;3.20;1.00;;;;;;;8.96;76.73;98476.56;4978303;28;20129;-80
2021/01/22 02:05:33;;;;;;;1.63;0.82;;;;;;;9.06;76.09;98480.06;5006718;28;20047;-81
2021/01/22 02:08:00;;;;;;;0.90;0.60;;;;;;;9.00;76.12;98484.03;5009400;28;20054;-81
2021/01/22 02:10:28;;;;;;;1.60;1.00;;;;;;;9.00;76.33;98484.03;5009466;28;20043;-80
2021/01/22 02:12:55;;;;;;;2.60;0.82;;;;;;;9.10;76.28;98478.84;5001911;28;20059;-80
2021/01/22 02:15:22;;;;;;;0.65;0.50;;;;;;;9.23;75.65;98473.31;4971474;28;20129;-80
2021/01/22 02:17:51;;;;;;;3.20;0.70;;;;;;;9.30;74.87;98469.22;4985570;28;20034;-82
2021/01/22 02:20:25;;;;;;;1.63;0.50;;;;;;;9.45;74.14;98470.47;4993454;28;20076;-81
2021/01/22 02:22:53;;;;;;;1.17;0.65;;;;;;;9.48;73.59;98451.81;4972105;29;20074;-79
2021/01/22 02:25:33;;;;;;;1.63;0.77;;;;;;;9.48;73.61;98459.69;5006983;28;20039;-80
2021/01/22 02:28:04;;;;;;;1.00;0.60;;;;;;;9.49;73.78;98448.22;4992098;28;20039;-80
2021/01/22 02:30:32;;;;;;;0.90;0.80;;;;;;;9.48;73.79;98435.22;4972671;28;20047;-81
2021/01/22 02:32:59;;;;;;;0.75;0.63;;;;;;;9.55;73.53;98433.72;4987252;28;20051;-81
2021/01/22 02:35:27;;;;;;;1.20;0.50;;;;;;;9.49;73.49;98439.50;4995542;28;20046;-81
2021/01/22 02:37:55;;;;;;;1.13;0.60;;;;;;;9.56;73.22;98428.31;4988128;28;20074;-81
2021/01/22 02:40:22;;;;;;;1.25;0.50;;;;;;;9.60;72.44;98436.78;4989423;28;20078;-80
2021/01/22 02:42:50;;;;;;;0.98;0.60;;;;;;;9.63;72.10;98424.16;4985716;28;20038;-81
2021/01/22 02:45:17;;;;;;;1.52;0.63;;;;;;;9.74;71.44;98415.34;4981837;28;20615;-80
2021/01/22 02:47:48;;;;;;;2.88;0.50;;;;;;;9.67;71.62;98424.72;4981081;28;20054;-81
2021/01/22 02:50:17;;;;;;;0.70;0.60;;;;;;;9.69;71.27;98420.19;4981562;28;20377;-81
2021/01/22 02:52:44;;;;;;;4.05;0.52;;;;;;;9.81;69.96;98412.97;4967036;28;20051;-82
2021/01/22 02:55:12;;;;;;;1.27;0.70;;;;;;;9.68;71.14;98402.75;4978999;28;20056;-81
2021/01/22 02:57:57;;;;;;;1.05;0.65;;;;;;;9.63;71.07;98405.78;4980477;28;20126;-81
2021/01/22 03:00:28;;;;;;;3.90;0.70;;;;;;;9.58;70.99;98413.25;4987040;28;20106;-81
2021/01/22 03:03:04;;;;;;;1.23;0.65;;;;;;;9.59;70.76;98404.41;4956044;28;20054;-81
2021/01/22 03:05:41;;;;;;;0.90;0.50;;;;;;;9.58;70.35;98400.13;4991893;28;20042;-80
2021/01/22 03:08:12;;;;;;;1.75;0.50;;;;;;;9.42;70.21;98399.84;4987708;28;20125;-80
2021/01/22 03:10:39;;;;;;;1.13;0.65;;;;;;;9.33;70.56;98388.38;4980557;28;20494;-80
2021/01/22 03:13:06;;;;;;;1.80;0.95;;;;;;;9.49;69.61;98395.69;4966245;28;20142;-80
2021/01/22 03:15:34;;;;;;;1.77;0.77;;;;;;;9.49;69.81;98393.06;4980293;28;20043;-79
2021/01/22 03:18:18;;;;;;;4.03;0.60;;;;;;;9.45;69.67;98382.97;4953176;28;20454;-80
2021/01/22 03:20:47;;;;;;;1.17;0.60;;;;;;;9.41;69.67;98405.22;4992907;28;20047;-80
2021/01/22 03:23:16;;;;;;;3.05;0.60;;;;;;;9.32;69.82;98389.34;4991355;28;20054;-80
2021/01/22 03:25:43;;;;;;;2.20;0.77;;;;;;;9.35;70.03;98388.22;4981100;28;20074;-78
2021/01/22 03:28:10;;;;;;;3.88;1.35;;;;;;;9.32;70.06;98391.13;4988400;28;20082;-81
2021/01/22 03:30:38;;;;;;;2.35;0.60;;;;;;;9.34;69.52;98384.78;4975648;28;20122;-80
2021/01/22 03:33:05;;;;;;;0.90;0.57;;;;;;;9.22;69.61;98393.72;4988283;28;20130;-80
2021/01/22 03:35:32;;;;;;;1.00;0.60;;;;;;;9.26;69.50;98403.00;4983360;28;20448;-80
2021/01/22 03:37:59;;;;;;;1.10;0.70;;;;;;;9.33;68.50;98384.91;4985098;28;20053;-81
2021/01/22 03:40:26;;;;;;;1.70;0.60;;;;;;;9.39;68.51;98382.56;4952313;28;20524;-79
2021/01/22 03:42:52;;;;;;;1.95;0.60;;;;;;;9.27;69.29;98394.16;4987375;28;20054;-81
2021/01/22 03:45:19;;;;;;;1.75;0.77;;;;;;;9.20;69.00;98384.34;4986554;28;20040;-80
2021/01/22 03:47:46;;;;;;;12.35;0.88;;;;;;;9.21;68.81;98386.00;4987877;28;20170;-79
2021/01/22 03:50:13;;;;;;;2.65;0.70;;;;;;;9.12;69.63;98390.28;4964238;28;20043;-80
2021/01/22 03:52:40;;;;;;;1.15;0.60;;;;;;;9.07;69.52;98374.09;4996471;28;20531;-81
2021/01/22 03:55:08;;;;;;;3.22;0.70;;;;;;;9.27;68.14;98361.81;4993002;28;20039;-79
2021/01/22 03:57:35;;;;;;;0.85;0.60;;;;;;;9.45;66.83;98364.59;5005977;28;20063;-79
2021/01/22 04:00:05;;;;;;;1.08;0.60;;;;;;;9.34;67.26;98366.41;4988982;28;20066;-80
2021/01/22 04:02:32;;;;;;;0.93;0.52;;;;;;;9.37;66.41;98365.31;4994674;28;20524;-80
2021/01/22 04:04:59;;;;;;;3.17;0.60;;;;;;;9.47;65.70;98352.16;4995935;28;20047;-82
2021/01/22 04:07:26;;;;;;;0.82;0.40;;;;;;;9.46;66.47;98348.72;4983666;28;20046;-80
2021/01/22 04:09:53;;;;;;;2.13;0.45;;;;;;;9.44;66.23;98334.06;4988847;28;20153;-81
2021/01/22 04:12:19;;;;;;;0.77;0.47;;;;;;;9.45;66.04;98339.16;4999382;28;20058;-81
2021/01/22 04:14:52;;;;;;;0.88;0.60;;;;;;;9.34;66.43;98342.75;5000904;28;20052;-80
2021/01/22 04:17:19;;;;;;;0.60;0.50;;;;;;;9.42;66.00;98349.97;4974636;28;20061;-81
2021/01/22 04:19:46;;;;;;;6.15;0.70;;;;;;;9.39;65.96;98334.47;5000120;28;20051;-80
2021/01/22 04:22:13;;;;;;;1.25;0.60;;;;;;;9.39;66.13;98332.66;5000367;28;20142;-80
2021/01/22 04:24:40;;;;;;;0.95;0.55;;;;;;;9.51;65.32;98330.72;4981696;28;20045;-80
2021/01/22 04:27:07;;;;;;;0.57;0.45;;;;;;;9.40;65.40;98309.84;4968269;28;20066;-80
2021/01/22 04:29:33;;;;;;;0.95;0.60;;;;;;;9.35;65.74;98326.03;4985408;28;20543;-80
2021/01/22 04:32:01;;;;;;;0.88;0.57;;;;;;;9.50;65.37;98321.22;4968603;28;20061;-80
2021/01/22 04:34:29;;;;;;;1.52;0.88;;;;;;;9.54;64.93;98313.84;4979129;28;20043;-81
2021/01/22 04:36:56;;;;;;;1.25;0.60;;;;;;;9.51;65.21;98320.22;4986304;28;20058;-81
2021/01/22 04:39:23;;;;;;;1.10;0.60;;;;;;;9.43;64.83;98316.66;4977251;28;20074;-80
2021/01/22 04:41:49;;;;;;;0.60;0.47;;;;;;;9.42;65.46;98309.75;4971914;28;20079;-80
2021/01/22 04:44:17;;;;;;;0.93;0.68;;;;;;;9.36;65.64;98311.09;4974703;28;20118;-80
2021/01/22 04:46:44;;;;;;;1.30;0.60;;;;;;;9.26;66.01;98308.47;4986734;28;20050;-80
2021/01/22 04:49:11;;;;;;;1.08;0.63;;;;;;;9.21;65.99;98297.56;4985293;28;20073;-80
2021/01/22 04:51:38;;;;;;;0.75;0.60;;;;;;;9.24;65.76;98294.69;4970460;28;20048;-80
2021/01/22 04:54:09;;;;;;;0.80;0.60;;;;;;;9.19;65.82;98296.06;4992669;28;20074;-81
2021/01/22 04:56:39;;;;;;;0.70;0.50;;;;;;;9.07;66.25;98298.81;4986199;28;20050;-78
2021/01/22 04:59:13;;;;;;;2.15;0.95;;;;;;;9.11;66.47;98279.22;4991979;28;20073;-79
2021/01/22 05:01:40;;;;;;;2.17;0.77;;;;;;;9.03;66.27;98279.06;4973571;28;20397;-80
2021/01/22 05:04:07;;;;;;;1.08;0.50;;;;;;;9.07;65.78;98266.50;4994156;28;20070;-82
2021/01/22 05:06:34;;;;;;;0.93;0.60;;;;;;;9.09;66.32;98273.25;4958305;28;20046;-80
2021/01/22 05:09:02;;;;;;;2.85;0.70;;;;;;;9.02;66.54;98268.72;4981282;28;20082;-81
2021/01/22 05:11:29;;;;;;;2.08;0.88;;;;;;;8.85;67.04;98259.72;4990299;28;20239;-81
2021/01/22 05:13:56;;;;;;;1.42;0.80;;;;;;;8.72;66.99;98262.59;4995251;28;20049;-80
2021/01/22 05:16:24;;;;;;;1.17;0.77;;;;;;;8.82;66.34;98262.63;4982623;28;20054;-81
2021/01/22 05:18:51;;;;;;;1.23;0.77;;;;;;;8.80;66.98;98260.13;5008401;28;20046;-81
2021/01/22 05:21:21;;;;;;;2.10;0.88;;;;;;;8.80;67.05;98259.31;4990507;28;20061;-81
2021/01/22 05:23:48;;;;;;;1.92;0.70;;;;;;;8.75;66.68;98254.47;4982671;28;20042;-80
2021/01/22 05:26:16;;;;;;;1.60;0.70;;;;;;;8.83;66.70;98245.94;4986992;28;20081;-82
2021/01/22 05:28:45;;;;;;;2.88;0.85;;;;;;;8.86;66.27;98251.72;4966363;28;20049;-81
2021/01/22 05:31:14;;;;;;;1.50;0.77;;;;;;;8.86;66.84;98241.22;4981868;28;20168;-82
2021/01/22 05:33:53;;;;;;;0.93;0.70;;;;;;;8.84;66.32;98248.41;4997212;28;20038;-79
2021/01/22 05:36:29;;;;;;;0.82;0.60;;;;;;;8.71;66.96;98255.72;4970313;28;20075;-81
2021/01/22 05:38:59;;;;;;;2.15;0.70;;;;;;;8.63;67.23;98255.56;4995344;28;20034;-80
2021/01/22 05:41:27;;;;;;;0.73;0.50;;;;;;;8.50;67.47;98254.97;4981244;28;20081;-81
2021/01/22 05:43:54;;;;;;;1.17;0.70;;;;;;;8.49;67.27;98264.66;4965795;28;20062;-80
2021/01/22 05:46:23;;;;;;;1.05;0.63;;;;;;;8.49;67.69;98253.34;4980606;28;20042;-79
2021/01/22 05:49:07;;;;;;;4.65;0.88;;;;;;;8.56;67.03;98250.03;4977896;28;20062;-80
2021/01/22 05:51:34;;;;;;;1.00;0.70;;;;;;;8.44;67.55;98266.84;4992700;28;20054;-80
2021/01/22 05:54:01;;;;;;;2.60;0.70;;;;;;;8.44;68.07;98263.41;4952150;28;20066;-80
2021/01/22 05:56:28;;;;;;;2.22;0.80;;;;;;;8.52;67.53;98247.81;4984212;28;20034;-82
2021/01/22 05:58:54;;;;;;;1.88;0.70;;;;;;;8.48;67.43;98262.16;4996767;28;20050;-80
2021/01/22 06:01:22;;;;;;;1.48;0.68;;;;;;;8.53;67.72;98252.09;4979280;28;20122;-79
2021/01/22 06:03:51;;;;;;;1.00;0.73;;;;;;;8.48;67.51;98249.88;4996261;28;20081;-80
2021/01/22 06:06:19;;;;;;;2.00;0.85;;;;;;;8.42;68.12;98241.72;4982425;28;20027;-81
2021/01/22 06:08:54;;;;;;;2.63;0.80;;;;;;;8.44;68.07;98248.50;4971384;28;20050;-80
2021/01/22 06:11:25;;;;;;;1.75;0.60;;;;;;;8.51;67.55;98240.91;4959049;28;20501;-80
2021/01/22 06:13:54;;;;;;;1.33;0.70;;;;;;;8.67;67.32;98238.59;4985006;28;20034;-82
2021/01/22 06:16:28;;;;;;;2.33;1.05;;;;;;;8.66;66.90;98230.88;4981137;28;20042;-79
2021/01/22 06:18:59;;;;;;;1.35;0.60;;;;;;;8.61;67.43;98232.09;4975923;28;20035;-81
2021/01/22 06:21:38;;;;;;;1.50;0.70;;;;;;;8.58;67.46;98240.22;4984872;28;20046;-82
2021/01/22 06:24:07;;;;;;;4.72;1.67;;;;;;;8.65;67.53;98226.59;4967771;28;20106;-82
2021/01/22 06:26:38;;;;;;;1.23;0.70;;;;;;;8.59;67.94;98222.69;4965313;28;20062;-80
2021/01/22 06:29:07;;;;;;;1.85;1.00;;;;;;;8.57;68.10;98225.47;4983558;28;20543;-80
2021/01/22 06:31:34;;;;;;;1.15;0.73;;;;;;;8.63;67.45;98229.34;4987099;28;20093;-81
2021/01/22 06:34:01;;;;;;;1.17;0.70;;;;;;;8.55;67.85;98222.13;4966375;28;20105;-83
2021/01/22 06:36:28;;;;;;;1.73;0.90;;;;;;;8.52;68.08;98211.13;4977321;28;20895;-78
2021/01/22 06:38:55;;;;;;;3.97;0.90;;;;;;;8.52;68.36;98224.22;4949142;28;20077;-77
2021/01/22 06:41:25;;;;;;;1.85;0.80;;;;;;;8.71;67.80;98221.63;4975208;28;20120;-79
2021/01/22 06:43:56;;;;;;;4.90;1.00;;;;;;;8.77;67.06;98228.09;4971638;28;20145;-77
2021/01/22 06:46:26;;;;;;;1.48;0.88;;;;;;;8.81;67.55;98221.63;4976980;28;20140;-78
2021/01/22 06:49:01;;;;;;;2.22;0.80;;;;;;;8.74;67.66;98223.97;4985450;23;20096;-78
2021/01/22 06:51:30;;;;;;;1.47;0.90;;;;;;;8.61;68.22;98232.09;4980115;28;20055;-77
2021/01/22 06:54:18;;;;;;;1.95;0.70;;;;;;;8.65;68.46;98224.78;4971977;28;21065;-77
2021/01/22 06:56:51;;;;;;;1.38;0.90;;;;;;;8.58;69.09;98226.28;4996580;28;20031;-76
2021/01/22 06:59:21;;;;;;;1.85;1.00;;;;;;;8.73;68.15;98221.47;5003013;28;20721;-76
2021/01/22 07:01:53;;;;;;;4.82;1.70;;;;;;;8.55;68.98;98234.44;4992428;28;20069;-77
2021/01/22 07:04:28;;;;;;;2.83;0.85;;;;;;;8.64;68.73;98228.34;4991874;28;20110;-76
2021/01/22 07:06:56;;;;;;;3.42;1.10;;;;;;;8.68;68.14;98231.53;4987910;28;20039;-78
2021/01/22 07:09:47;;;;;;;2.17;1.55;;;;;;;8.70;68.27;98237.50;4993035;28;20428;-78
2021/01/22 07:12:14;;;;;;;4.32;1.65;;;;;;;8.70;69.01;98242.75;4995046;28;20058;-78
2021/01/22 07:14:43;;;;;;;3.03;1.00;;;;;;;8.74;68.54;98226.59;4992841;28;20068;-78
2021/01/22 07:17:14;;;;;;;5.43;0.90;;;;;;;8.84;68.47;98229.22;4988231;28;20567;-77
2021/01/22 07:19:48;;;;;;;3.80;1.50;;;;;;;8.98;68.08;98241.91;4975873;28;20125;-75
2021/01/22 07:22:22;;;;;;;4.97;0.85;;;;;;;9.12;67.33;98232.78;4991996;28;20053;-74
2021/01/22 07:24:53;;;;;;;2.55;0.90;;;;;;;9.19;67.14;98230.44;4990127;28;20393;-74
2021/01/22 07:27:20;;;;;;;3.60;1.20;;;;;;;9.13;67.15;98234.44;4958016;28;20042;-75
2021/01/22 07:30:15;;;;;;;1.25;1.00;;;;;;;9.14;67.56;98238.75;5004070;28;20132;-76
2021/01/22 07:32:49;;;;;;;4.75;1.08;;;;;;;9.25;67.19;98248.25;4987501;28;20057;-76
2021/01/22 07:35:24;;;;;;;2.47;1.00;;;;;;;9.39;66.51;98237.31;4983320;28;20034;-76
2021/01/22 07:37:51;;;;;;;2.30;0.80;;;;;;;9.43;66.37;98227.34;4995252;28;20539;-75
2021/01/22 07:40:19;;;;;;;3.08;0.85;;;;;;;9.55;66.01;98237.56;4980714;28;20069;-74
2021/01/22 07:42:46;;;;;;;2.95;1.02;;;;;;;9.55;66.05;98248.06;4995326;28;20147;-77
2021/01/22 07:45:15;;;;;;;4.95;1.10;;;;;;;9.77;66.11;98246.03;4980849;28;20145;-78
2021/01/22 07:47:46;;;;;;;3.88;1.30;;;;;;;9.74;65.31;98256.88;4985852;28;20076;-78
2021/01/22 07:50:21;;;;;;;4.57;0.80;;;;;;;9.70;65.38;98253.69;4990882;28;20050;-78
2021/01/22 07:52:49;;;;;;;5.60;1.85;;;;;;;9.76;65.62;98260.16;4981152;28;20054;-76
2021/01/22 07:55:17;;;;;;;4.65;1.42;;;;;;;9.82;65.26;98259.59;4980269;28;20121;-76
2021/01/22 07:57:45;;;;;;;4.43;1.20;;;;;;;9.82;65.24;98260.44;4964483;28;20057;-77
2021/01/22 08:00:15;;;;;;;3.63;1.35;;;;;;;9.79;66.23;98263.34;4978153;28;20046;-75
2021/01/22 08:02:56;;;;;;;3.03;1.08;;;;;;;9.82;65.33;98262.25;4979066;28;20141;-77
2021/01/22 08:05:33;;;;;;;2.03;0.88;;;;;;;9.63;66.08;98265.72;4969999;28;20046;-76
2021/01/22 08:08:01;;;;;;;2.28;0.88;;;;;;;9.79;65.57;98273.03;4991816;28;20058;-75
2021/01/22 08:10:29;;;;;;;4.68;1.10;;;;;;;9.82;65.48;98270.13;4990928;28;20083;-78
2021/01/22 08:12:58;;;;;;;2.80;1.15;;;;;;;9.79;65.77;98273.03;4968747;28;20042;-77
2021/01/22 08:15:26;;;;;;;3.03;1.02;;;;;;;9.80;65.48;98266.78;4960129;28;20129;-74
2021/01/22 08:17:53;;;;;;;4.10;0.80;;;;;;;9.73;65.67;98265.72;4982314;28;20088;-76
2021/01/22 08:20:21;;;;;;;1.98;1.08;;;;;;;9.86;65.87;98266.22;4963138;28;20050;-77
2021/01/22 08:22:52;;;;;;;2.30;1.05;;;;;;;9.84;65.24;98269.00;4979205;28;20054;-76
2021/01/22 08:25:36;;;;;;;3.60;1.15;;;;;;;9.88;65.02;98274.78;4996720;28;20721;-76
2021/01/22 08:28:05;;;;;;;3.47;1.20;;;;;;;9.89;65.45;98284.31;4960717;28;20050;-78
2021/01/22 08:30:33;;;;;;;6.28;1.48;;;;;;;9.97;64.99;98281.00;4961391;28;20057;-76
2021/01/22 08:33:00;;;;;;;4.30;1.20;;;;;;;10.04;65.46;98292.56;4979810;28;20073;-76
2021/01/22 08:35:29;;;;;;;11.73;1.83;;;;;;;10.24;64.28;98296.81;4976688;28;20053;-77
2021/01/22 08:37:58;;;;;;;3.55;1.20;;;;;;;10.27;64.19;98295.72;4985773;28;20046;-80
2021/01/22 08:40:39;;;;;;;3.15;1.40;;;;;;;10.27;64.17;98301.81;4990877;28;20046;-79
2021/01/22 08:43:09;;;;;;;3.67;1.30;;;;;;;10.30;63.97;98309.38;4991755;28;20054;-79
2021/01/22 08:45:36;;;;;;;3.75;1.17;;;;;;;10.24;65.34;98332.78;4997934;28;20057;-79
2021/01/22 08:48:04;;;;;;;3.00;0.98;;;;;;;9.94;67.03;98333.84;4991350;28;20050;-80
2021/01/22 08:50:32;;;;;;;7.10;1.27;;;;;;;9.79;68.08;98392.09;4984319;28;20078;-77
2021/01/22 08:53:06;;;;;;;5.13;0.82;;;;;;;9.34;71.53;98425.97;5001201;28;20464;-78
2021/01/22 08:55:33;;;;;;;8.77;1.00;;;;;;;8.49;76.80;98421.97;4995241;28;20046;-79
2021/01/22 08:58:05;;;;;;;4.18;0.60;;;;;;;7.91;79.09;98450.41;4996010;28;20051;-78
2021/01/22 09:00:32;;;;;;;8.77;1.52;;;;;;;7.46;82.46;98453.22;4969566;28;20769;-77
2021/01/22 09:02:59;;;;;;;5.40;0.70;;;;;;;7.45;83.25;98462.03;4968825;28;20050;-78
2021/01/22 09:05:28;;;;;;;9.73;0.60;;;;;;;7.25;82.77;98462.78;4981667;28;20039;-78
2021/01/22 09:08:08;;;;;;;7.00;1.40;;;;;;;7.18;83.96;98462.47;4965953;28;20157;-78
2021/01/22 09:10:40;;;;;;;5.18;0.70;;;;;;;7.18;84.22;98470.31;4975308;28;20049;-78
2021/01/22 09:13:15;;;;;;;3.30;0.50;;;;;;;7.18;83.91;98475.53;4982227;28;20050;-78
2021/01/22 09:15:43;;;;;;;8.80;1.35;;;;;;;7.12;83.70;98483.88;4983970;28;20055;-78
2021/01/22 09:18:19;;;;;;;2.65;0.77;;;;;;;7.06;84.38;98486.97;4990211;28;20062;-77
2021/01/22 09:21:09;;;;;;;5.97;0.60;;;;;;;6.96;83.97;98499.94;4981821;28;20130;-76
2021/01/22 09:23:37;;;;;;;9.48;1.75;;;;;;;6.83;84.75;98502.66;4978493;28;20093;-75
2021/01/22 09:26:04;;;;;;;3.30;0.80;;;;;;;6.85;84.60;98494.72;4946828;28;20057;-76
2021/01/22 09:28:31;;;;;;;2.13;0.60;;;;;;;7.02;84.95;98504.69;4978428;28;20130;-76
2021/01/22 09:30:58;;;;;;;4.50;0.50;;;;;;;7.09;84.58;98512.91;4968968;28;20108;-76
2021/01/22 09:33:25;;;;;;;10.32;1.00;;;;;;;7.16;84.39;98506.25;4973774;28;20053;-78
2021/01/22 09:35:55;;;;;;;17.20;1.52;;;;;;;7.00;84.92;98513.63;4982675;28;20041;-75
2021/01/22 09:38:21;;;;;;;7.75;0.90;;;;;;;7.09;86.01;98513.72;4999046;28;20061;-76
2021/01/22 09:40:49;;;;;;;1.63;0.68;;;;;;;7.18;85.68;98508.72;4993500;28;21265;-78
2021/01/22 09:43:17;;;;;;;4.43;0.68;;;;;;;7.27;85.81;98521.09;4976544;28;20060;-78
2021/01/22 09:45:44;;;;;;;14.25;1.10;;;;;;;7.21;86.93;98526.81;4976666;28;20132;-75
2021/01/22 09:48:16;;;;;;;5.25;0.95;;;;;;;7.08;86.12;98533.00;4975884;28;20046;-75
2021/01/22 09:50:43;;;;;;;2.20;0.60;;;;;;;7.26;85.86;98546.44;4958804;28;20081;-76
2021/01/22 09:53:10;;;;;;;4.97;0.73;;;;;;;7.28;85.48;98554.97;4958796;28;20062;-75
2021/01/22 09:55:48;;;;;;;2.45;0.75;;;;;;;7.40;84.60;98560.22;4963858;28;20085;-76
2021/01/22 09:58:15;;;;;;;6.50;0.65;;;;;;;7.30;84.31;98557.50;4960408;28;20055;-74
2021/01/22 10:00:42;;;;;;;7.82;0.82;;;;;;;7.31;84.69;98557.38;4982763;28;20118;-77
2021/01/22 10:03:09;;;;;;;2.65;0.70;;;;;;;7.47;83.77;98551.75;4986920;28;20061;-75
2021/01/22 10:05:36;;;;;;;6.32;1.88;;;;;;;7.16;83.56;98545.50;4963596;28;20050;-75
2021/01/22 10:08:03;;;;;;;3.25;0.70;;;;;;;7.30;84.02;98550.47;4976712;28;20527;-75
2021/01/22 10:10:29;;;;;;;1.52;0.50;;;;;;;7.21;82.71;98547.75;4974754;28;20082;-77
2021/01/22 10:12:56;;;;;;;1.60;0.60;;;;;;;7.58;82.65;98548.28;4974810;28;20053;-77
2021/01/22 10:15:23;;;;;;;3.10;0.60;;;;;;;8.02;79.64;98555.19;4976393;28;20062;-77
2021/01/22 10:17:50;;;;;;;1.60;0.52;;;;;;;7.98;78.94;98564.25;4977488;28;20069;-77
2021/01/22 10:20:16;;;;;;;1.27;0.68;;;;;;;8.01;78.97;98566.59;4968603;28;20050;-76
2021/01/22 10:22:45;;;;;;;6.18;1.20;;;;;;;7.87;78.52;98574.75;4979519;28;20038;-76
2021/01/22 10:25:12;;;;;;;6.88;2.40;;;;;;;7.81;80.41;98570.03;4961329;28;20058;-76
2021/01/22 10:27:39;;;;;;;3.42;0.65;;;;;;;7.97;78.81;98580.94;4981336;28;20492;-74
2021/01/22 10:30:06;;;;;;;2.75;0.57;;;;;;;8.04;77.72;98594.38;4965549;28;20084;-74
2021/01/22 10:32:33;;;;;;;2.03;0.60;;;;;;;8.12;77.34;98608.50;4987846;28;20069;-75
2021/01/22 10:35:00;;;;;;;1.73;0.60;;;;;;;8.24;76.54;98616.31;4972136;28;20505;-76
2021/01/22 10:37:29;;;;;;;3.20;0.70;;;;;;;8.21;75.82;98611.34;4972844;28;20056;-80
2021/01/22 10:39:56;;;;;;;0.93;0.50;;;;;;;7.85;74.97;98611.56;4970118;28;20144;-79
2021/01/22 10:42:25;;;;;;;2.63;0.75;;;;;;;7.59;75.68;98618.84;4962464;28;20050;-78
2021/01/22 10:44:52;;;;;;;4.78;0.85;;;;;;;7.69;75.99;98618.97;4969170;28;20110;-78
2021/01/22 10:47:18;;;;;;;4.80;0.80;;;;;;;7.66;76.87;98616.59;4970125;28;20071;-77
2021/01/22 10:49:56;;;;;;;3.28;0.70;;;;;;;7.34;76.20;98617.34;4968522;28;20066;-79
2021/01/22 10:52:23;;;;;;;2.05;0.60;;;;;;;7.26;75.69;98614.47;4973777;28;20069;-81
2021/01/22 10:54:50;;;;;;;1.10;0.60;;;;;;;7.57;75.35;98615.53;4960738;28;20053;-79
2021/01/22 10:57:16;;;;;;;0.40;0.30;;;;;;;7.60;73.32;98623.13;4956966;28;20066;-78
2021/01/22 10:59:43;;;;;;;3.38;0.55;;;;;;;7.42;74.69;98627.19;4974443;28;20136;-78
2021/01/22 11:02:11;;;;;;;0.82;0.55;;;;;;;7.53;74.26;98619.34;4950818;28;20659;-79
2021/01/22 11:04:41;;;;;;;1.45;0.70;;;;;;;7.43;74.03;98615.78;4967613;28;20070;-78
2021/01/22 11:07:12;;;;;;;6.53;0.75;;;;;;;7.67;73.17;98623.50;4968158;28;20166;-79
2021/01/22 11:09:39;;;;;;;3.25;1.02;;;;;;;7.91;72.41;98625.94;4977142;28;20057;-76
2021/01/22 11:12:06;;;;;;;0.60;0.43;;;;;;;7.83;70.00;98636.19;4991416;28;20061;-76
2021/01/22 11:14:33;;;;;;;2.72;0.50;;;;;;;7.76;69.90;98629.81;4964079;28;20132;-77
2021/01/22 11:17:00;;;;;;;1.42;0.35;;;;;;;7.90;70.23;98641.81;4968562;28;20050;-72
2021/01/22 11:19:31;;;;;;;4.78;0.52;;;;;;;8.04;69.73;98633.66;4960966;28;20058;-73
2021/01/22 11:21:58;;;;;;;0.70;0.40;;;;;;;8.01;69.37;98637.34;4944371;28;20051;-73
2021/01/22 11:24:24;;;;;;;7.30;0.50;;;;;;;7.54;69.33;98623.63;4963412;28;20073;-75
2021/01/22 11:26:53;;;;;;;0.55;0.40;;;;;;;7.53;69.71;98627.22;4982213;28;20144;-74
2021/01/22 11:29:20;;;;;;;2.65;0.50;;;;;;;7.61;69.74;98632.69;4970550;28;20175;-74
2021/01/22 11:31:47;;;;;;;1.52;0.52;;;;;;;7.38;70.24;98633.63;4963230;28;20626;-75
2021/01/22 11:34:14;;;;;;;4.80;0.60;;;;;;;7.44;71.24;98648.88;4963034;28;20051;-74
2021/01/22 11:36:40;;;;;;;1.00;0.45;;;;;;;7.38;70.45;98651.09;4950202;28;20148;-76
2021/01/22 11:39:07;;;;;;;0.73;0.47;;;;;;;7.40;71.41;98650.06;4958237;28;21360;-77
2021/01/22 11:41:34;;;;;;;3.65;0.70;;;;;;;7.26;71.40;98645.06;4965255;28;20062;-76
2021/01/22 11:44:01;;;;;;;6.47;1.15;;;;;;;7.49;71.67;98638.88;4971420;28;20119;-73
2021/01/22 11:46:28;;;;;;;3.83;0.70;;;;;;;7.55;71.37;98645.41;4972792;28;20042;-74
2021/01/22 11:48:55;;;;;;;2.47;0.80;;;;;;;7.48;71.11;98634.59;4965090;28;20055;-75
2021/01/22 11:51:22;;;;;;;1.77;0.80;;;;;;;7.70;71.74;98631.13;4973005;28;20058;-79